createdAt,value
2023-02-16T00:03:17.941Z,94.85
2023-02-16T00:08:20.040Z,100.00
2023-02-16T00:13:44.669Z,100.00
2023-02-16T00:18:48.352Z,100.00
2023-02-16T00:23:50.723Z,100.00
2023-02-16T00:28:58.492Z,100.00
2023-02-16T00:34:25.488Z,100.00
2023-02-16T00:39:29.912Z,100.00
2023-02-16T00:44:48.198Z,100.00
2023-02-16T00:49:53.882Z,100.00
2023-02-16T00:54:57.453Z,100.00
2023-02-16T01:00:17.046Z,100.00
2023-02-16T01:05:19.791Z,100.00
2023-02-16T01:10:40.706Z,100.00
2023-02-16T01:15:44.480Z,100.00
2023-02-16T01:20:47.884Z,100.00
2023-02-16T01:25:50.552Z,100.00
2023-02-16T01:30:54.566Z,100.00
2023-02-16T01:35:58.043Z,100.00
2023-02-16T01:41:22.833Z,100.00
2023-02-16T01:46:39.698Z,100.00
2023-02-16T01:51:56.024Z,100.00
2023-02-16T01:57:15.633Z,100.00
2023-02-16T02:02:22.827Z,100.00
2023-02-16T02:08:01.368Z,100.00
2023-02-16T02:13:16.100Z,100.00
2023-02-16T02:18:19.971Z,100.00
2023-02-16T02:23:49.168Z,100.00
2023-02-16T02:29:13.746Z,100.00
2023-02-16T02:34:45.290Z,100.00
2023-02-16T02:40:03.291Z,100.00
2023-02-16T02:45:16.782Z,100.00
2023-02-16T02:50:38.751Z,100.00
2023-02-16T02:56:08.163Z,100.00
2023-02-16T03:01:14.521Z,100.00
2023-02-16T03:06:47.713Z,100.00
2023-02-16T03:12:11.422Z,100.00
2023-02-16T03:17:37.216Z,100.00
2023-02-16T03:22:59.417Z,100.00
2023-02-16T03:28:25.120Z,100.00
2023-02-16T03:33:29.199Z,100.00
2023-02-16T03:38:32.100Z,100.00
2023-02-16T03:43:35.086Z,100.00
2023-02-16T03:48:37.612Z,100.00
2023-02-16T03:53:40.085Z,100.00
2023-02-16T03:58:42.846Z,100.00
2023-02-16T04:03:45.351Z,100.00
2023-02-16T04:08:47.818Z,100.00
2023-02-16T04:13:50.196Z,100.00
2023-02-16T04:18:52.764Z,100.00
2023-02-16T04:23:55.373Z,100.00
2023-02-16T04:28:57.754Z,100.00
2023-02-16T04:34:00.379Z,100.00
2023-02-16T04:39:02.832Z,100.00
2023-02-16T04:44:05.402Z,100.00
2023-02-16T04:49:07.805Z,100.00
2023-02-16T04:54:10.197Z,100.00
2023-02-16T04:59:13.413Z,100.00
2023-02-16T05:04:16.720Z,100.00
2023-02-16T05:09:19.414Z,100.00
2023-02-16T05:14:43.313Z,100.00
2023-02-16T05:19:48.744Z,100.00
2023-02-16T05:24:52.086Z,100.00
2023-02-16T05:29:55.367Z,100.00
2023-02-16T05:34:57.803Z,100.00
2023-02-16T05:40:00.241Z,100.00
2023-02-16T05:45:03.656Z,100.00
2023-02-16T05:50:06.646Z,100.00
2023-02-16T05:55:09.271Z,100.00
2023-02-16T06:00:12.387Z,100.00
2023-02-16T06:05:15.018Z,100.00
2023-02-16T06:10:18.713Z,100.00
2023-02-16T06:15:21.329Z,100.00
2023-02-16T06:20:23.908Z,100.00
2023-02-16T06:25:26.534Z,100.00
2023-02-16T06:30:29.394Z,100.00
2023-02-16T06:35:32.381Z,100.00
2023-02-16T06:40:34.781Z,100.00
2023-02-16T06:45:37.166Z,100.00
2023-02-16T06:50:39.595Z,100.00
2023-02-16T06:55:42.016Z,100.00
2023-02-16T07:00:44.504Z,100.00
2023-02-16T07:05:50.091Z,100.00
2023-02-16T07:10:54.952Z,100.00
2023-02-16T07:15:57.630Z,100.00
2023-02-16T07:21:00.382Z,100.00
2023-02-16T07:26:03.186Z,100.00
2023-02-16T07:31:11.371Z,100.00
2023-02-16T07:36:14.783Z,100.00
2023-02-16T07:41:17.279Z,100.00
2023-02-16T07:46:19.805Z,100.00
2023-02-16T07:51:27.172Z,100.00
2023-02-16T07:56:32.386Z,100.00
2023-02-16T08:01:35.398Z,100.00
2023-02-16T08:06:38.094Z,100.00
2023-02-16T08:11:40.956Z,100.00
2023-02-16T08:16:43.439Z,100.00
2023-02-16T08:21:49.476Z,100.00
2023-02-16T08:26:53.994Z,100.00
2023-02-16T08:31:57.043Z,100.00
2023-02-16T08:37:00.402Z,100.00
2023-02-16T08:42:03.908Z,100.00
2023-02-16T08:47:09.635Z,100.00
2023-02-16T08:52:12.501Z,100.00
2023-02-16T08:57:16.100Z,100.00
2023-02-16T09:02:18.576Z,100.00
2023-02-16T09:07:22.491Z,100.00
2023-02-16T09:12:26.665Z,100.00
2023-02-16T09:17:29.562Z,99.51
2023-02-16T09:22:32.981Z,92.66
2023-02-16T09:27:35.439Z,85.79
2023-02-16T09:32:37.920Z,91.04
2023-02-16T09:37:40.374Z,80.90
2023-02-16T09:42:43.163Z,64.15
2023-02-16T09:47:49.180Z,65.96
2023-02-16T09:52:57.359Z,62.62
2023-02-16T09:58:30.118Z,59.09
2023-02-16T10:04:01.663Z,54.19
2023-02-16T10:09:12.958Z,55.07
2023-02-16T10:14:37.649Z,43.77
2023-02-16T10:20:06.374Z,41.60
2023-02-16T10:25:26.539Z,39.32
2023-02-16T10:30:32.668Z,40.91
2023-02-16T10:35:41.297Z,42.82
2023-02-16T10:41:10.658Z,40.53
2023-02-16T10:46:23.608Z,42.37
2023-02-16T10:51:31.697Z,44.19
2023-02-16T10:56:43.404Z,45.06
2023-02-16T11:01:57.675Z,46.67
2023-02-16T11:07:24.183Z,43.59
2023-02-16T11:12:38.638Z,45.40
2023-02-16T11:17:57.802Z,40.79
2023-02-16T11:23:28.167Z,38.36
2023-02-16T11:28:38.112Z,35.06
2023-02-16T11:33:43.139Z,30.64
2023-02-16T11:39:23.420Z,30.46
2023-02-16T11:44:35.792Z,27.68
2023-02-16T11:49:41.443Z,29.00
2023-02-16T11:54:57.564Z,28.15
2023-02-16T12:00:04.997Z,26.74
2023-02-16T12:05:28.933Z,27.46
2023-02-16T12:10:45.822Z,26.28
2023-02-16T12:16:14.163Z,28.93
2023-02-16T12:21:41.313Z,29.20
2023-02-16T12:26:50.068Z,30.09
2023-02-16T12:32:16.091Z,29.70
2023-02-16T12:38:03.726Z,30.38
2023-02-16T12:43:47.479Z,30.72
2023-02-16T12:49:01.305Z,32.57
2023-02-16T12:54:27.808Z,36.63
2023-02-16T12:59:50.272Z,37.51
2023-02-16T13:05:31.942Z,39.15
2023-02-16T13:10:55.559Z,36.76
2023-02-16T13:16:24.045Z,32.95
2023-02-16T13:22:04.480Z,34.79
2023-02-16T13:27:20.983Z,37.87
2023-02-16T13:32:48.679Z,38.53
2023-02-16T13:38:30.848Z,39.90
2023-02-16T13:44:02.141Z,41.46
2023-02-16T13:49:05.349Z,46.42
2023-02-16T13:54:23.916Z,43.60
2023-02-16T13:59:26.352Z,43.31
2023-02-16T14:04:31.389Z,46.81
2023-02-16T14:09:39.801Z,47.50
2023-02-16T14:14:41.869Z,49.47
2023-02-16T14:20:13.889Z,49.39
2023-02-16T14:25:24.459Z,45.22
2023-02-16T14:30:51.955Z,46.68
2023-02-16T14:36:00.483Z,48.66
2023-02-16T14:41:13.917Z,48.57
2023-02-16T14:46:54.181Z,47.96
2023-02-16T14:52:24.084Z,49.27
2023-02-16T14:57:54.049Z,51.86
2023-02-16T15:03:07.137Z,49.60
2023-02-16T15:08:22.730Z,49.88
2023-02-16T15:13:29.441Z,49.15
2023-02-16T15:18:52.248Z,48.95
2023-02-16T15:23:58.764Z,50.16
2023-02-16T15:29:27.251Z,51.12
2023-02-16T15:34:34.777Z,49.06
2023-02-16T15:39:49.717Z,49.50
2023-02-16T15:44:59.126Z,49.06
2023-02-16T15:50:13.372Z,47.39
2023-02-16T15:55:15.924Z,48.03
2023-02-16T16:00:25.171Z,47.29
2023-02-16T16:05:36.262Z,47.10
2023-02-16T16:10:42.022Z,46.87
2023-02-16T16:15:48.604Z,47.87
2023-02-16T16:21:02.818Z,48.43
2023-02-16T16:26:18.761Z,47.92
2023-02-16T16:31:21.263Z,47.98
2023-02-16T16:36:47.336Z,48.69
2023-02-16T16:42:07.838Z,49.94
2023-02-16T16:47:29.161Z,50.93
2023-02-16T16:52:52.167Z,50.10
2023-02-16T16:58:06.864Z,50.99
2023-02-16T17:03:13.691Z,51.15
2023-02-16T17:08:16.250Z,51.65
2023-02-16T17:13:21.476Z,52.72
2023-02-16T17:18:24.591Z,52.42
2023-02-16T17:23:27.336Z,50.05
2023-02-16T17:28:34.228Z,50.20
2023-02-16T17:33:37.098Z,50.00
2023-02-16T17:38:39.680Z,50.06
2023-02-16T17:43:42.176Z,50.36
2023-02-16T17:48:45.717Z,50.35
2023-02-16T17:53:48.282Z,50.92
2023-02-16T17:58:51.280Z,51.83
2023-02-16T18:03:53.995Z,52.55
2023-02-16T18:08:56.772Z,52.97
2023-02-16T18:13:59.282Z,53.38
2023-02-16T18:19:02.890Z,54.28
2023-02-16T18:24:05.916Z,56.19
2023-02-16T18:29:09.830Z,55.84
2023-02-16T18:34:12.459Z,56.85
2023-02-16T18:39:15.105Z,57.23
2023-02-16T18:44:17.638Z,58.29
2023-02-16T18:49:20.181Z,58.01
2023-02-16T18:54:22.895Z,58.05
2023-02-16T18:59:25.578Z,57.61
2023-02-16T19:04:29.068Z,57.09
2023-02-16T19:09:31.663Z,58.57
2023-02-16T19:14:34.200Z,54.99
2023-02-16T19:19:37.128Z,55.59
2023-02-16T19:24:39.977Z,55.15
2023-02-16T19:29:42.639Z,55.53
2023-02-16T19:34:45.142Z,55.84
2023-02-16T19:39:47.603Z,55.30
2023-02-16T19:44:49.988Z,55.20
2023-02-16T19:49:52.966Z,54.73
2023-02-16T19:54:55.793Z,54.87
2023-02-16T19:59:58.638Z,54.36
2023-02-16T20:05:01.078Z,54.28
2023-02-16T20:10:03.921Z,54.44
2023-02-16T20:15:06.692Z,54.14
2023-02-16T20:20:09.529Z,54.21
2023-02-16T20:25:12.149Z,53.57
2023-02-16T20:30:25.359Z,54.20
2023-02-16T20:35:28.003Z,55.08
2023-02-16T20:40:30.471Z,55.45
2023-02-16T20:45:33.349Z,57.08
2023-02-16T20:50:35.999Z,57.19
2023-02-16T20:55:38.413Z,57.72
2023-02-16T21:00:43.548Z,57.38
2023-02-16T21:05:46.149Z,57.24
2023-02-16T21:10:48.615Z,57.39
2023-02-16T21:15:51.676Z,56.90
2023-02-16T21:20:54.441Z,56.57
2023-02-16T21:26:05.831Z,57.21
2023-02-16T21:31:12.859Z,56.25
2023-02-16T21:36:18.525Z,56.04
2023-02-16T21:41:29.313Z,56.60
2023-02-16T21:46:37.083Z,56.09
2023-02-16T21:51:41.549Z,56.51
2023-02-16T21:56:48.095Z,56.38
2023-02-16T22:01:51.803Z,57.06
2023-02-16T22:06:54.912Z,57.19
2023-02-16T22:11:57.587Z,57.84
2023-02-16T22:17:06.523Z,58.14
2023-02-16T22:22:08.933Z,58.73
2023-02-16T22:27:11.390Z,58.76
2023-02-16T22:32:14.239Z,59.10
2023-02-16T22:37:16.704Z,58.82
2023-02-16T22:42:19.184Z,59.00
2023-02-16T22:47:21.611Z,58.20
2023-02-16T22:52:24.315Z,58.51
2023-02-16T22:57:26.998Z,58.85
2023-02-16T23:02:29.434Z,59.26
2023-02-16T23:07:33.529Z,59.10
2023-02-16T23:12:35.966Z,60.29
2023-02-16T23:17:38.475Z,61.06
2023-02-16T23:22:40.919Z,61.65
2023-02-16T23:27:43.365Z,61.97
2023-02-16T23:32:46.861Z,62.13
2023-02-16T23:37:49.640Z,62.48
2023-02-16T23:42:51.651Z,62.81
2023-02-16T23:47:53.766Z,62.80
2023-02-16T23:52:56.084Z,63.39
2023-02-16T23:57:58.288Z,63.31
